createdAt,value
2019-01-28T00:01:56.064Z,4.10
2019-01-28T00:04:22.273Z,4.30
2019-01-28T00:06:48.753Z,4.40
2019-01-28T00:09:15.484Z,4.60
2019-01-28T00:11:41.846Z,4.57
2019-01-28T00:14:08.540Z,4.30
2019-01-28T00:16:34.886Z,4.50
2019-01-28T00:19:01.156Z,4.43
2019-01-28T00:21:27.516Z,4.63
2019-01-28T00:23:53.897Z,4.33
2019-01-28T00:26:20.400Z,4.83
2019-01-28T00:28:46.813Z,5.00
2019-01-28T00:31:13.208Z,5.77
2019-01-28T00:33:39.572Z,5.33
2019-01-28T00:36:06.008Z,6.00
2019-01-28T00:38:32.335Z,5.50
2019-01-28T00:40:58.622Z,5.47
2019-01-28T00:43:24.882Z,5.60
2019-01-28T00:45:51.280Z,5.83
2019-01-28T00:48:17.857Z,5.97
2019-01-28T00:50:44.265Z,5.70
2019-01-28T00:53:10.937Z,6.10
2019-01-28T00:55:37.217Z,5.80
2019-01-28T00:58:03.656Z,6.37
2019-01-28T01:00:30.620Z,5.93
2019-01-28T01:02:56.868Z,5.90
2019-01-28T01:05:23.281Z,6.70
2019-01-28T01:07:49.643Z,6.00
2019-01-28T01:10:16.129Z,6.10
2019-01-28T01:12:42.710Z,6.20
2019-01-28T01:15:10.219Z,5.33
2019-01-28T01:17:36.784Z,5.17
2019-01-28T01:20:05.089Z,4.93
2019-01-28T01:22:31.381Z,5.53
2019-01-28T01:24:57.616Z,5.67
2019-01-28T01:27:23.952Z,5.60
2019-01-28T01:29:50.248Z,5.67
2019-01-28T01:32:16.494Z,5.30
2019-01-28T01:34:42.842Z,5.60
2019-01-28T01:37:09.169Z,4.90
2019-01-28T01:39:35.956Z,4.47
2019-01-28T01:42:02.417Z,5.17
2019-01-28T01:44:28.707Z,4.60
2019-01-28T01:46:55.356Z,4.80
2019-01-28T01:49:29.405Z,4.93
2019-01-28T01:51:55.841Z,4.33
2019-01-28T01:54:27.924Z,4.57
2019-01-28T01:56:54.308Z,4.60
2019-01-28T01:59:20.661Z,4.37
2019-01-28T02:01:46.988Z,4.53
2019-01-28T02:04:13.381Z,4.20
2019-01-28T02:06:39.736Z,4.80
2019-01-28T02:09:06.793Z,4.20
2019-01-28T02:11:33.037Z,3.93
2019-01-28T02:13:59.433Z,4.03
2019-01-28T02:16:25.784Z,4.07
2019-01-28T02:18:52.192Z,4.33
2019-01-28T02:21:18.475Z,4.60
2019-01-28T02:23:44.713Z,4.13
2019-01-28T02:26:11.229Z,4.60
2019-01-28T02:28:37.521Z,4.80
2019-01-28T02:31:03.876Z,3.83
2019-01-28T02:33:30.149Z,4.03
2019-01-28T02:35:56.652Z,4.40
2019-01-28T02:38:22.862Z,4.50
2019-01-28T02:40:49.232Z,4.40
2019-01-28T02:43:15.823Z,4.40
2019-01-28T02:45:42.290Z,4.93
2019-01-28T02:48:08.652Z,4.30
2019-01-28T02:50:34.989Z,4.53
2019-01-28T02:53:01.391Z,3.70
2019-01-28T02:55:27.770Z,3.93
2019-01-28T02:57:53.991Z,3.70
2019-01-28T03:00:20.945Z,3.67
2019-01-28T03:02:47.245Z,4.13
2019-01-28T03:05:13.916Z,4.63
2019-01-28T03:07:40.216Z,4.40
2019-01-28T03:10:08.306Z,4.27
2019-01-28T03:12:34.830Z,4.53
2019-01-28T03:15:01.188Z,4.53
2019-01-28T03:17:29.157Z,4.37
2019-01-28T03:19:55.734Z,4.13
2019-01-28T03:22:22.265Z,3.57
2019-01-28T03:24:48.717Z,3.73
2019-01-28T03:27:15.088Z,3.60
2019-01-28T03:29:41.504Z,3.20
2019-01-28T03:32:07.830Z,3.80
2019-01-28T03:34:34.266Z,3.90
2019-01-28T03:37:00.792Z,3.80
2019-01-28T03:39:27.107Z,3.70
2019-01-28T03:41:53.469Z,3.77
2019-01-28T03:44:19.886Z,3.83
2019-01-28T03:46:46.269Z,3.93
2019-01-28T03:49:12.698Z,3.60
2019-01-28T03:51:39.168Z,3.53
2019-01-28T03:54:05.498Z,3.13
2019-01-28T03:56:31.846Z,3.20
2019-01-28T03:58:58.206Z,3.57
2019-01-28T04:01:26.525Z,3.60
2019-01-28T04:03:53.152Z,3.27
2019-01-28T04:06:20.545Z,3.90
2019-01-28T04:08:46.956Z,2.97
2019-01-28T04:11:15.503Z,3.50
2019-01-28T04:13:42.002Z,3.10
2019-01-28T04:16:08.516Z,3.30
2019-01-28T04:18:35.013Z,3.00
2019-01-28T04:21:01.430Z,2.87
2019-01-28T04:23:27.926Z,2.47
2019-01-28T04:25:54.238Z,2.87
2019-01-28T04:28:20.598Z,2.70
2019-01-28T04:30:47.021Z,3.00
2019-01-28T04:33:13.426Z,2.70
2019-01-28T04:35:39.744Z,3.27
2019-01-28T04:38:05.972Z,2.90
2019-01-28T04:40:32.207Z,2.93
2019-01-28T04:42:58.578Z,2.53
2019-01-28T04:45:24.907Z,3.20
2019-01-28T04:47:51.170Z,3.50
2019-01-28T04:50:17.926Z,3.20
2019-01-28T04:52:46.911Z,3.20
2019-01-28T04:55:13.372Z,3.03
2019-01-28T04:57:39.833Z,2.80
2019-01-28T05:00:08.470Z,2.80
2019-01-28T05:02:34.750Z,2.80
2019-01-28T05:05:01.120Z,2.40
2019-01-28T05:07:27.462Z,2.80
2019-01-28T05:09:53.962Z,2.80
2019-01-28T05:12:20.320Z,2.57
2019-01-28T05:14:46.644Z,3.03
2019-01-28T05:17:12.952Z,2.53
2019-01-28T05:19:39.228Z,2.40
2019-01-28T05:22:05.608Z,2.70
2019-01-28T05:24:31.899Z,2.50
2019-01-28T05:26:58.316Z,2.87
2019-01-28T05:29:24.762Z,2.70
2019-01-28T05:31:51.334Z,2.17
2019-01-28T05:34:17.743Z,2.60
2019-01-28T05:36:44.115Z,2.40
2019-01-28T05:39:10.938Z,2.60
2019-01-28T05:41:37.228Z,2.37
2019-01-28T05:44:04.034Z,2.40
2019-01-28T05:46:30.481Z,2.40
2019-01-28T05:48:56.937Z,2.20
2019-01-28T05:51:23.246Z,2.50
2019-01-28T05:53:49.801Z,2.57
2019-01-28T05:56:16.321Z,2.33
2019-01-28T05:58:42.668Z,2.30
2019-01-28T06:01:09.016Z,2.20
2019-01-28T06:03:35.609Z,2.37
2019-01-28T06:06:02.171Z,2.37
2019-01-28T06:08:28.596Z,2.00
2019-01-28T06:10:54.830Z,2.00
2019-01-28T06:13:21.302Z,1.93
2019-01-28T06:15:47.693Z,1.80
2019-01-28T06:18:14.203Z,1.90
2019-01-28T06:20:40.429Z,1.87
2019-01-28T06:23:06.816Z,1.83
2019-01-28T06:25:33.312Z,1.47
2019-01-28T06:27:59.752Z,1.63
2019-01-28T06:30:29.552Z,1.60
2019-01-28T06:32:55.880Z,1.57
2019-01-28T06:35:22.370Z,1.17
2019-01-28T06:37:48.729Z,1.53
2019-01-28T06:40:16.298Z,1.30
2019-01-28T06:42:42.836Z,1.33
2019-01-28T06:45:09.693Z,1.40
2019-01-28T06:47:46.393Z,1.50
2019-01-28T06:50:16.448Z,1.10
2019-01-28T06:52:42.758Z,1.30
2019-01-28T06:55:09.250Z,1.20
2019-01-28T06:57:35.710Z,1.20
2019-01-28T07:00:02.301Z,1.40
2019-01-28T07:02:28.820Z,1.43
2019-01-28T07:04:55.346Z,1.40
2019-01-28T07:07:24.952Z,1.50
2019-01-28T07:09:51.289Z,1.27
2019-01-28T07:12:17.672Z,1.40
2019-01-28T07:14:44.129Z,1.37
2019-01-28T07:17:11.742Z,1.23
2019-01-28T07:19:38.147Z,1.20
2019-01-28T07:22:04.682Z,1.40
2019-01-28T07:24:31.358Z,1.30
2019-01-28T07:26:57.945Z,1.30
2019-01-28T07:29:24.616Z,1.10
2019-01-28T07:31:51.121Z,1.50
2019-01-28T07:34:17.679Z,1.30
2019-01-28T07:36:44.086Z,1.17
2019-01-28T07:39:10.763Z,1.20
2019-01-28T07:41:37.044Z,1.23
2019-01-28T07:44:03.666Z,1.30
2019-01-28T07:46:30.193Z,1.50
2019-01-28T07:48:56.850Z,1.23
2019-01-28T07:51:23.129Z,1.10
2019-01-28T07:53:49.532Z,1.50
2019-01-28T07:56:15.924Z,1.40
2019-01-28T07:58:42.529Z,1.20
2019-01-28T08:01:13.438Z,1.10
2019-01-28T08:03:39.965Z,1.00
2019-01-28T08:06:07.211Z,1.10
2019-01-28T08:08:33.445Z,1.10
2019-01-28T08:10:59.849Z,1.30
2019-01-28T08:13:26.279Z,1.10
2019-01-28T08:15:52.616Z,0.90
2019-01-28T08:18:19.021Z,0.80
2019-01-28T08:20:45.515Z,1.10
2019-01-28T08:23:12.034Z,1.00
2019-01-28T08:25:39.394Z,1.10
2019-01-28T08:28:06.181Z,1.10
2019-01-28T08:30:33.749Z,1.70
2019-01-28T08:33:00.133Z,1.10
2019-01-28T08:35:27.171Z,1.40
2019-01-28T08:37:55.607Z,1.20
2019-01-28T08:40:22.212Z,1.10
2019-01-28T08:42:48.591Z,1.17
2019-01-28T08:45:15.436Z,1.57
2019-01-28T08:47:41.911Z,1.03
2019-01-28T08:50:09.506Z,1.30
2019-01-28T08:52:36.049Z,1.40
2019-01-28T08:55:03.409Z,1.17
2019-01-28T08:57:30.217Z,1.10
2019-01-28T08:59:57.044Z,1.40
2019-01-28T09:02:26.354Z,1.10
2019-01-28T09:05:00.278Z,1.60
2019-01-28T11:05:27.844Z,1.67
2019-01-28T11:07:54.473Z,1.70
2019-01-28T11:10:21.001Z,1.67
2019-01-28T11:13:11.398Z,1.70
2019-01-28T11:19:32.188Z,1.40
2019-01-28T15:04:59.788Z,1.20
2019-01-28T15:07:26.161Z,1.60
2019-01-28T15:09:52.656Z,1.37
2019-01-28T15:12:19.177Z,1.30
2019-01-28T15:14:47.581Z,1.20
2019-01-28T15:17:14.055Z,1.50
2019-01-28T15:19:40.481Z,1.53
2019-01-28T15:22:18.430Z,1.90
2019-01-28T15:24:46.229Z,1.70
2019-01-28T15:27:12.988Z,1.60
2019-01-28T15:29:39.737Z,1.60
2019-01-28T15:32:06.326Z,2.03
2019-01-28T15:34:32.820Z,1.60
2019-01-28T15:37:01.294Z,1.60
2019-01-28T15:39:29.126Z,2.00
2019-01-28T15:41:55.766Z,1.43
2019-01-28T15:44:21.994Z,1.40
2019-01-28T15:46:48.591Z,1.70
2019-01-28T15:49:15.328Z,2.03
2019-01-28T15:51:46.337Z,2.00
2019-01-28T15:54:12.947Z,2.23
2019-01-28T15:56:39.524Z,2.23
2019-01-28T15:59:06.458Z,4.40
2019-01-28T16:01:33.268Z,2.70
2019-01-28T16:03:59.687Z,2.10
2019-01-28T16:06:26.385Z,2.13
2019-01-28T16:08:52.931Z,2.30
2019-01-28T16:11:19.640Z,2.10
2019-01-28T16:13:46.394Z,2.67
2019-01-28T16:16:12.967Z,3.10
2019-01-28T16:18:47.452Z,3.10
2019-01-28T16:21:15.262Z,3.33
2019-01-28T16:23:41.956Z,4.30
2019-01-28T16:26:09.205Z,4.90
2019-01-28T16:28:35.817Z,5.00
2019-01-28T16:31:02.418Z,6.80
2019-01-28T16:33:28.891Z,5.37
2019-01-28T16:35:55.564Z,8.60
2019-01-28T16:38:25.897Z,9.60
2019-01-28T16:40:52.383Z,10.67
2019-01-28T16:43:19.083Z,2.80
2019-01-28T16:45:46.567Z,2.80
2019-01-28T16:48:13.099Z,3.03
2019-01-28T16:50:39.856Z,3.77
2019-01-28T16:53:06.919Z,2.97
2019-01-28T16:55:33.696Z,6.93
2019-01-28T16:58:00.508Z,2.37
2019-01-28T21:46:18.844Z,2.13
2019-01-28T21:48:45.470Z,2.10
2019-01-28T21:51:12.306Z,2.20
2019-01-28T21:53:41.648Z,2.03
2019-01-28T21:56:08.223Z,2.10
2019-01-28T21:58:34.765Z,2.70
2019-01-28T22:01:01.266Z,2.30
2019-01-28T22:03:27.813Z,2.10
2019-01-28T22:05:54.273Z,3.20
2019-01-28T22:08:20.656Z,2.27
2019-01-28T22:10:47.235Z,2.43
2019-01-28T22:13:13.673Z,2.77
2019-01-28T22:15:40.188Z,2.63
2019-01-28T22:18:06.762Z,2.63
2019-01-28T22:20:33.426Z,2.23
2019-01-28T22:22:59.825Z,2.80
2019-01-28T22:25:26.335Z,2.27
2019-01-28T22:27:57.436Z,2.40
2019-01-28T22:30:21.048Z,2.20
2019-01-28T22:32:47.588Z,2.07
2019-01-28T22:35:14.028Z,2.40
2019-01-28T22:37:40.353Z,2.53
2019-01-28T22:40:07.277Z,2.70
2019-01-28T22:42:33.593Z,2.40
2019-01-28T22:44:59.846Z,2.20
2019-01-28T22:47:26.411Z,2.20
2019-01-28T22:49:52.732Z,2.50
2019-01-28T22:52:19.158Z,2.27
2019-01-28T22:54:47.204Z,2.80
2019-01-28T22:57:13.629Z,2.67
2019-01-28T22:59:39.868Z,2.90
2019-01-28T23:02:06.353Z,2.83
2019-01-28T23:04:32.752Z,2.73
2019-01-28T23:06:59.121Z,3.00
2019-01-28T23:09:28.819Z,3.90
2019-01-28T23:11:55.311Z,3.00
2019-01-28T23:14:21.836Z,2.97
2019-01-28T23:16:48.202Z,3.00
2019-01-28T23:19:14.972Z,2.90
2019-01-28T23:21:41.515Z,3.00
2019-01-28T23:24:07.932Z,2.57
2019-01-28T23:26:41.230Z,1.97
2019-01-28T23:29:07.756Z,2.63
2019-01-28T23:31:34.133Z,3.00
2019-01-28T23:34:00.707Z,2.67
2019-01-28T23:36:27.134Z,2.90
2019-01-28T23:38:53.776Z,2.47
2019-01-28T23:41:21.050Z,2.23
2019-01-28T23:43:47.553Z,2.30
2019-01-28T23:46:14.103Z,3.00
2019-01-28T23:48:40.533Z,2.77
2019-01-28T23:51:07.054Z,2.83
2019-01-28T23:53:33.462Z,2.80
2019-01-28T23:55:59.827Z,2.90
2019-01-28T23:58:26.430Z,2.80
